Aviation Digital Data Service (ADDS)

Output produced by METARs form (1001 UTC 23 July 2019)
found at http://www.aviationweather.gov/metar/data/
 
METAR text: FEFF 230900Z VRB02KT 8000 BKN010 FEW033CB 24/23 Q1015 BECMG SCT010 FEW033CB
Conditions at: FEFF (BANGUI/M'POKO (M, CF) observed 0900 UTC 23 July 2019
Temperature: 24.0°C (75°F)
Dewpoint: 23.0°C (73°F) [RH = 94%]
Pressure (altimeter): 29.97 inches Hg (1015.0 mb)
Winds: variable direction winds at 2 MPH (2 knots; 1.0 m/s)
Visibility: 5 miles ( 8 km)
Ceiling: 1000 feet AGL
Clouds: broken clouds at 1000 feet AGL
few clouds at 3300 feet AGL
Weather: no significant weather observed at this time

METAR text: FEFF 230800Z VRB02KT 7000 BKN007 FEW033CB 23/23 Q1015 TEMPO TSRA
Conditions at: FEFF (BANGUI/M'POKO (M, CF) observed 0800 UTC 23 July 2019
Temperature: 23.0°C (73°F)
Dewpoint: 23.0°C (73°F) [RH = 100%]
Pressure (altimeter): 29.97 inches Hg (1015.0 mb)
Winds: variable direction winds at 2 MPH (2 knots; 1.0 m/s)
Visibility: 4 miles ( 7 km)
Ceiling: 700 feet AGL
Clouds: broken clouds at 700 feet AGL
few clouds at 3300 feet AGL
Weather: no significant weather observed at this time

METAR text: FEFF 230700Z 00000KT 4000 BR BKN007 23/23 Q1015 BECMG 6000 NSW SCT007
Conditions at: FEFF (BANGUI/M'POKO (M, CF) observed 0700 UTC 23 July 2019
Temperature: 23.0°C (73°F)
Dewpoint: 23.0°C (73°F) [RH = 100%]
Pressure (altimeter): 29.97 inches Hg (1015.0 mb)
Winds: calm
Visibility: 2.49 miles (4.01 km)
Ceiling: 700 feet AGL
Clouds: broken clouds at 700 feet AGL
Weather: BR  (mist)

METAR text: FEFF 230600Z 00000KT 3000 BR BKN004 23/22 Q1014 BECMG 6000 NSW SCT007
Conditions at: FEFF (BANGUI/M'POKO (M, CF) observed 0600 UTC 23 July 2019
Temperature: 23.0°C (73°F)
Dewpoint: 22.0°C (72°F) [RH = 94%]
Pressure (altimeter): 29.94 inches Hg (1014.0 mb)
Winds: calm
Visibility: 1.86 miles (2.99 km)
Ceiling: 400 feet AGL
Clouds: broken clouds at 400 feet AGL
Weather: BR  (mist)

METAR text: FEFF 230500Z 00000KT 4000 BR BKN004 23/23 Q1013 TEMPO 2500 BR
Conditions at: FEFF (BANGUI/M'POKO (M, CF) observed 0500 UTC 23 July 2019
Temperature: 23.0°C (73°F)
Dewpoint: 23.0°C (73°F) [RH = 100%]
Pressure (altimeter): 29.91 inches Hg (1013.0 mb)
Winds: calm
Visibility: 2.49 miles (4.01 km)
Ceiling: 400 feet AGL
Clouds: broken clouds at 400 feet AGL
Weather: BR  (mist)

METAR text: FEFF 230400Z 00000KT 6000 BKN004 21/21 Q1013 BECMG 3000 BR
Conditions at: FEFF (BANGUI/M'POKO (M, CF) observed 0400 UTC 23 July 2019
Temperature: 21.0°C (70°F)
Dewpoint: 21.0°C (70°F) [RH = 100%]
Pressure (altimeter): 29.91 inches Hg (1013.0 mb)
Winds: calm
Visibility: 4 miles ( 6 km)
Ceiling: 400 feet AGL
Clouds: broken clouds at 400 feet AGL
Weather: no significant weather observed at this time

METAR text: FEFF 230300Z 00000KT 6000 SCT006 22/22 Q1012 BECMG 3000 BR BKN006
Conditions at: FEFF (BANGUI/M'POKO (M, CF) observed 0300 UTC 23 July 2019
Temperature: 22.0°C (72°F)
Dewpoint: 22.0°C (72°F) [RH = 100%]
Pressure (altimeter): 29.88 inches Hg (1012.0 mb)
Winds: calm
Visibility: 4 miles ( 6 km)
Ceiling: at least 12,000 feet AGL
Clouds: scattered clouds at 600 feet AGL
Weather: no significant weather observed at this time

METAR text: FEFF 230200Z VRB02KT 6000 SCT006 22/22 Q1012 BECMG 3000 BR BKN006
Conditions at: FEFF (BANGUI/M'POKO (M, CF) observed 0200 UTC 23 July 2019
Temperature: 22.0°C (72°F)
Dewpoint: 22.0°C (72°F) [RH = 100%]
Pressure (altimeter): 29.88 inches Hg (1012.0 mb)
Winds: variable direction winds at 2 MPH (2 knots; 1.0 m/s)
Visibility: 4 miles ( 6 km)
Ceiling: at least 12,000 feet AGL
Clouds: scattered clouds at 600 feet AGL
Weather: no significant weather observed at this time

METAR text: FEFF 230100Z VRB02KT 6000 SCT006 23/23 Q1012 BECMG 3000 BR BKN006
Conditions at: FEFF (BANGUI/M'POKO (M, CF) observed 0100 UTC 23 July 2019
Temperature: 23.0°C (73°F)
Dewpoint: 23.0°C (73°F) [RH = 100%]
Pressure (altimeter): 29.88 inches Hg (1012.0 mb)
Winds: variable direction winds at 2 MPH (2 knots; 1.0 m/s)
Visibility: 4 miles ( 6 km)
Ceiling: at least 12,000 feet AGL
Clouds: scattered clouds at 600 feet AGL
Weather: no significant weather observed at this time

METAR text: FEFF 230000Z 00000KT 6000 SCT006 23/23 Q1012 BECMG 3000 BR BKN006
Conditions at: FEFF (BANGUI/M'POKO (M, CF) observed 0000 UTC 23 July 2019
Temperature: 23.0°C (73°F)
Dewpoint: 23.0°C (73°F) [RH = 100%]
Pressure (altimeter): 29.88 inches Hg (1012.0 mb)
Winds: calm
Visibility: 4 miles ( 6 km)
Ceiling: at least 12,000 feet AGL
Clouds: scattered clouds at 600 feet AGL
Weather: no significant weather observed at this time

METAR text: FEFF 222300Z 00000KT 6000 SCT007 23/23 Q1013 RETS NOSIG
Conditions at: FEFF (BANGUI/M'POKO (M, CF) observed 2300 UTC 22 July 2019
Temperature: 23.0°C (73°F)
Dewpoint: 23.0°C (73°F) [RH = 100%]
Pressure (altimeter): 29.91 inches Hg (1013.0 mb)
Winds: calm
Visibility: 4 miles ( 6 km)
Ceiling: at least 12,000 feet AGL
Clouds: scattered clouds at 700 feet AGL
Weather: no significant weather observed at this time

METAR text: FEFF 222200Z VRB02KT 6000 TS SCT007 FEW033CB 23/23 Q1013 BECMG NSW
Conditions at: FEFF (BANGUI/M'POKO (M, CF) observed 2200 UTC 22 July 2019
Temperature: 23.0°C (73°F)
Dewpoint: 23.0°C (73°F) [RH = 100%]
Pressure (altimeter): 29.91 inches Hg (1013.0 mb)
Winds: variable direction winds at 2 MPH (2 knots; 1.0 m/s)
Visibility: 4 miles ( 6 km)
Ceiling: at least 12,000 feet AGL
Clouds: scattered clouds at 700 feet AGL
few clouds at 3300 feet AGL
Weather: TS  (thunderstorm)

METAR text: FEFF 222100Z VRB02KT 8000 TS SCT007 FEW033CB 23/23 Q1013 BECMG NSW
Conditions at: FEFF (BANGUI/M'POKO (M, CF) observed 2100 UTC 22 July 2019
Temperature: 23.0°C (73°F)
Dewpoint: 23.0°C (73°F) [RH = 100%]
Pressure (altimeter): 29.91 inches Hg (1013.0 mb)
Winds: variable direction winds at 2 MPH (2 knots; 1.0 m/s)
Visibility: 5 miles ( 8 km)
Ceiling: at least 12,000 feet AGL
Clouds: scattered clouds at 700 feet AGL
few clouds at 3300 feet AGL
Weather: TS  (thunderstorm)

METAR text: FEFF 222000Z VRB02KT 8000 TS SCT010 FEW033CB 23/23 Q1012 BECMG NSW
Conditions at: FEFF (BANGUI/M'POKO (M, CF) observed 2000 UTC 22 July 2019
Temperature: 23.0°C (73°F)
Dewpoint: 23.0°C (73°F) [RH = 100%]
Pressure (altimeter): 29.88 inches Hg (1012.0 mb)
Winds: variable direction winds at 2 MPH (2 knots; 1.0 m/s)
Visibility: 5 miles ( 8 km)
Ceiling: at least 12,000 feet AGL
Clouds: scattered clouds at 1000 feet AGL
few clouds at 3300 feet AGL
Weather: TS  (thunderstorm)

METAR text: FEFF 221900Z VRB02KT 8000 -TSRA SCT010 FEW033CB 24/23 Q1012 TEMPO 3000 TSRA BKN010 FEW033CB
Conditions at: FEFF (BANGUI/M'POKO (M, CF) observed 1900 UTC 22 July 2019
Temperature: 24.0°C (75°F)
Dewpoint: 23.0°C (73°F) [RH = 94%]
Pressure (altimeter): 29.88 inches Hg (1012.0 mb)
Winds: variable direction winds at 2 MPH (2 knots; 1.0 m/s)
Visibility: 5 miles ( 8 km)
Ceiling: at least 12,000 feet AGL
Clouds: scattered clouds at 1000 feet AGL
few clouds at 3300 feet AGL
Weather: -TSRA  (light rain associated with thunderstorm(s))

METAR text: FEFF 221800Z VRB04KT 8000 -TSRA SCT013 FEW033CB 24/23 Q1013 TEMPO 3000 TSRA BKN010 FEW033CB
Conditions at: FEFF (BANGUI/M'POKO (M, CF) observed 1800 UTC 22 July 2019
Temperature: 24.0°C (75°F)
Dewpoint: 23.0°C (73°F) [RH = 94%]
Pressure (altimeter): 29.91 inches Hg (1013.0 mb)
Winds: variable direction winds at 5 MPH (4 knots; 2.1 m/s)
Visibility: 5 miles ( 8 km)
Ceiling: at least 12,000 feet AGL
Clouds: scattered clouds at 1300 feet AGL
few clouds at 3300 feet AGL
Weather: -TSRA  (light rain associated with thunderstorm(s))

METAR text: FEFF 221700Z VRB03KT 8000 -TSRA SCT013 FEW033CB 25/24 Q1012 TEMPO 3000 TSRA
Conditions at: FEFF (BANGUI/M'POKO (M, CF) observed 1700 UTC 22 July 2019
Temperature: 25.0°C (77°F)
Dewpoint: 24.0°C (75°F) [RH = 94%]
Pressure (altimeter): 29.88 inches Hg (1012.0 mb)
Winds: variable direction winds at 3 MPH (3 knots; 1.5 m/s)
Visibility: 5 miles ( 8 km)
Ceiling: at least 12,000 feet AGL
Clouds: scattered clouds at 1300 feet AGL
few clouds at 3300 feet AGL
Weather: -TSRA  (light rain associated with thunderstorm(s))

METAR text: FEFF 221600Z 30008KT 9999 TS SCT013 FEW033CB 26/23 Q1011 TEMPO 3000 TSRA
Conditions at: FEFF (BANGUI/M'POKO (M, CF) observed 1600 UTC 22 July 2019
Temperature: 26.0°C (79°F)
Dewpoint: 23.0°C (73°F) [RH = 84%]
Pressure (altimeter): 29.85 inches Hg (1011.0 mb)
Winds: from the WNW (300 degrees) at 9 MPH (8 knots; 4.1 m/s)
Visibility: 6 or more miles (10+ km)
Ceiling: at least 12,000 feet AGL
Clouds: scattered clouds at 1300 feet AGL
few clouds at 3300 feet AGL
Weather: TS  (thunderstorm)

METAR text: FEFF 221500Z VRB04KT 9999 TS SCT023 FEW033CB 30/22 Q1010 NOSIG
Conditions at: FEFF (BANGUI/M'POKO (M, CF) observed 1500 UTC 22 July 2019
Temperature: 30.0°C (86°F)
Dewpoint: 22.0°C (72°F) [RH = 62%]
Pressure (altimeter): 29.82 inches Hg (1010.0 mb)
Winds: variable direction winds at 5 MPH (4 knots; 2.1 m/s)
Visibility: 6 or more miles (10+ km)
Ceiling: at least 12,000 feet AGL
Clouds: scattered clouds at 2300 feet AGL
few clouds at 3300 feet AGL
Weather: TS  (thunderstorm)

METAR text: FEFF 221400Z 34006KT 9999 BKN023 FEW040CB 29/22 Q1010 TEMPO TS
Conditions at: FEFF (BANGUI/M'POKO (M, CF) observed 1400 UTC 22 July 2019
Temperature: 29.0°C (84°F)
Dewpoint: 22.0°C (72°F) [RH = 66%]
Pressure (altimeter): 29.82 inches Hg (1010.0 mb)
Winds: from the NNW (340 degrees) at 7 MPH (6 knots; 3.1 m/s)
Visibility: 6 or more miles (10+ km)
Ceiling: 2300 feet AGL
Clouds: broken clouds at 2300 feet AGL
few clouds at 4000 feet AGL
Weather: no significant weather observed at this time

METAR text: FEFF 221300Z 34006KT 9999 BKN023 FEW040CB 30/23 Q1011 TEMPO TS
Conditions at: FEFF (BANGUI/M'POKO (M, CF) observed 1300 UTC 22 July 2019
Temperature: 30.0°C (86°F)
Dewpoint: 23.0°C (73°F) [RH = 66%]
Pressure (altimeter): 29.85 inches Hg (1011.0 mb)
Winds: from the NNW (340 degrees) at 7 MPH (6 knots; 3.1 m/s)
Visibility: 6 or more miles (10+ km)
Ceiling: 2300 feet AGL
Clouds: broken clouds at 2300 feet AGL
few clouds at 4000 feet AGL
Weather: no significant weather observed at this time

METAR text: FEFF 221200Z 28004KT 9999 BKN023 FEW040CB 30/23 Q1012 NOSIG
Conditions at: FEFF (BANGUI/M'POKO (M, CF) observed 1200 UTC 22 July 2019
Temperature: 30.0°C (86°F)
Dewpoint: 23.0°C (73°F) [RH = 66%]
Pressure (altimeter): 29.88 inches Hg (1012.0 mb)
Winds: from the W (280 degrees) at 5 MPH (4 knots; 2.1 m/s)
Visibility: 6 or more miles (10+ km)
Ceiling: 2300 feet AGL
Clouds: broken clouds at 2300 feet AGL
few clouds at 4000 feet AGL
Weather: no significant weather observed at this time

METAR text: FEFF 221100Z VRB02KT 9999 -RA BKN020 FEW040CB 29/23 Q1014 TEMPO TSRA
Conditions at: FEFF (BANGUI/M'POKO (M, CF) observed 1100 UTC 22 July 2019
Temperature: 29.0°C (84°F)
Dewpoint: 23.0°C (73°F) [RH = 70%]
Pressure (altimeter): 29.94 inches Hg (1014.0 mb)
Winds: variable direction winds at 2 MPH (2 knots; 1.0 m/s)
Visibility: 6 or more miles (10+ km)
Ceiling: 2000 feet AGL
Clouds: broken clouds at 2000 feet AGL
few clouds at 4000 feet AGL
Weather: -RA  (light rain)

METAR text: FEFF 221000Z 27004KT 9999 -RA BKN020 FEW040CB 28/23 Q1014 TEMPO TSRA
Conditions at: FEFF (BANGUI/M'POKO (M, CF) observed 1000 UTC 22 July 2019
Temperature: 28.0°C (82°F)
Dewpoint: 23.0°C (73°F) [RH = 74%]
Pressure (altimeter): 29.94 inches Hg (1014.0 mb)
Winds: from the W (270 degrees) at 5 MPH (4 knots; 2.1 m/s)
Visibility: 6 or more miles (10+ km)
Ceiling: 2000 feet AGL
Clouds: broken clouds at 2000 feet AGL
few clouds at 4000 feet AGL
Weather: -RA  (light rain)

METAR text: FEFF 220900Z VRB02KT 9999 BKN020 27/22 Q1015 NOSIG
Conditions at: FEFF (BANGUI/M'POKO (M, CF) observed 0900 UTC 22 July 2019
Temperature: 27.0°C (81°F)
Dewpoint: 22.0°C (72°F) [RH = 74%]
Pressure (altimeter): 29.97 inches Hg (1015.0 mb)
Winds: variable direction winds at 2 MPH (2 knots; 1.0 m/s)
Visibility: 6 or more miles (10+ km)
Ceiling: 2000 feet AGL
Clouds: broken clouds at 2000 feet AGL
Weather: no significant weather observed at this time

METAR text: FEFF 220800Z 27004KT 9999 BKN013 25/22 Q1015 BECMG BKN016
Conditions at: FEFF (BANGUI/M'POKO (M, CF) observed 0800 UTC 22 July 2019
Temperature: 25.0°C (77°F)
Dewpoint: 22.0°C (72°F) [RH = 83%]
Pressure (altimeter): 29.97 inches Hg (1015.0 mb)
Winds: from the W (270 degrees) at 5 MPH (4 knots; 2.1 m/s)
Visibility: 6 or more miles (10+ km)
Ceiling: 1300 feet AGL
Clouds: broken clouds at 1300 feet AGL
Weather: no significant weather observed at this time

METAR text: FEFF 220700Z 26003KT 9999 SCT010 FEW033CB 23/22 Q1016 BECMG BKN010
Conditions at: FEFF (BANGUI/M'POKO (M, CF) observed 0700 UTC 22 July 2019
Temperature: 23.0°C (73°F)
Dewpoint: 22.0°C (72°F) [RH = 94%]
Pressure (altimeter): 30.00 inches Hg (1016.0 mb)
Winds: from the W (260 degrees) at 3 MPH (3 knots; 1.5 m/s)
Visibility: 6 or more miles (10+ km)
Ceiling: at least 12,000 feet AGL
Clouds: scattered clouds at 1000 feet AGL
few clouds at 3300 feet AGL
Weather: no significant weather observed at this time

METAR text: FEFF 220600Z VRB02KT 9999 SCT010 23/22 Q1015 BECMG BKN010
Conditions at: FEFF (BANGUI/M'POKO (M, CF) observed 0600 UTC 22 July 2019
Temperature: 23.0°C (73°F)
Dewpoint: 22.0°C (72°F) [RH = 94%]
Pressure (altimeter): 29.97 inches Hg (1015.0 mb)
Winds: variable direction winds at 2 MPH (2 knots; 1.0 m/s)
Visibility: 6 or more miles (10+ km)
Ceiling: at least 12,000 feet AGL
Clouds: scattered clouds at 1000 feet AGL
Weather: no significant weather observed at this time

METAR text: FEFF 220500Z VRB02KT 8000 -RA BKN010 23/23 Q1014 BECMG SCT010
Conditions at: FEFF (BANGUI/M'POKO (M, CF) observed 0500 UTC 22 July 2019
Temperature: 23.0°C (73°F)
Dewpoint: 23.0°C (73°F) [RH = 100%]
Pressure (altimeter): 29.94 inches Hg (1014.0 mb)
Winds: variable direction winds at 2 MPH (2 knots; 1.0 m/s)
Visibility: 5 miles ( 8 km)
Ceiling: 1000 feet AGL
Clouds: broken clouds at 1000 feet AGL
Weather: -RA  (light rain)

METAR text: FEFF 220400Z VRB02KT 8000 -RA BKN010 23/23 Q1014 NOSIG
Conditions at: FEFF (BANGUI/M'POKO (M, CF) observed 0400 UTC 22 July 2019
Temperature: 23.0°C (73°F)
Dewpoint: 23.0°C (73°F) [RH = 100%]
Pressure (altimeter): 29.94 inches Hg (1014.0 mb)
Winds: variable direction winds at 2 MPH (2 knots; 1.0 m/s)
Visibility: 5 miles ( 8 km)
Ceiling: 1000 feet AGL
Clouds: broken clouds at 1000 feet AGL
Weather: -RA  (light rain)

METAR text: FEFF 220300Z 00000KT 8000 SCT010 23/23 Q1013 NOSIG
Conditions at: FEFF (BANGUI/M'POKO (M, CF) observed 0300 UTC 22 July 2019
Temperature: 23.0°C (73°F)
Dewpoint: 23.0°C (73°F) [RH = 100%]
Pressure (altimeter): 29.91 inches Hg (1013.0 mb)
Winds: calm
Visibility: 5 miles ( 8 km)
Ceiling: at least 12,000 feet AGL
Clouds: scattered clouds at 1000 feet AGL
Weather: no significant weather observed at this time

METAR text: FEFF 220200Z 00000KT 8000 FEW010 23/23 Q1013 RETS NOSIG
Conditions at: FEFF (BANGUI/M'POKO (M, CF) observed 0200 UTC 22 July 2019
Temperature: 23.0°C (73°F)
Dewpoint: 23.0°C (73°F) [RH = 100%]
Pressure (altimeter): 29.91 inches Hg (1013.0 mb)
Winds: calm
Visibility: 5 miles ( 8 km)
Ceiling: at least 12,000 feet AGL
Clouds: few clouds at 1000 feet AGL
Weather: no significant weather observed at this time

METAR text: FEFF 220100Z VRB02KT 8000 TS SCT010 FEW033CB 23/23 Q1013 BECMG NSW
Conditions at: FEFF (BANGUI/M'POKO (M, CF) observed 0100 UTC 22 July 2019
Temperature: 23.0°C (73°F)
Dewpoint: 23.0°C (73°F) [RH = 100%]
Pressure (altimeter): 29.91 inches Hg (1013.0 mb)
Winds: variable direction winds at 2 MPH (2 knots; 1.0 m/s)
Visibility: 5 miles ( 8 km)
Ceiling: at least 12,000 feet AGL
Clouds: scattered clouds at 1000 feet AGL
few clouds at 3300 feet AGL
Weather: TS  (thunderstorm)

METAR text: FEFF 220000Z 35004KT 8000 TS SCT010 FEW033CB 24/23 Q1013 BECMG NSW
Conditions at: FEFF (BANGUI/M'POKO (M, CF) observed 0000 UTC 22 July 2019
Temperature: 24.0°C (75°F)
Dewpoint: 23.0°C (73°F) [RH = 94%]
Pressure (altimeter): 29.91 inches Hg (1013.0 mb)
Winds: from the N (350 degrees) at 5 MPH (4 knots; 2.1 m/s)
Visibility: 5 miles ( 8 km)
Ceiling: at least 12,000 feet AGL
Clouds: scattered clouds at 1000 feet AGL
few clouds at 3300 feet AGL
Weather: TS  (thunderstorm)

METAR text: FEFF 212300Z VRB03KT 8000 -TSRA SCT013 FEW033CB 24/23 Q1013 NOSIG
Conditions at: FEFF (BANGUI/M'POKO (M, CF) observed 2300 UTC 21 July 2019
Temperature: 24.0°C (75°F)
Dewpoint: 23.0°C (73°F) [RH = 94%]
Pressure (altimeter): 29.91 inches Hg (1013.0 mb)
Winds: variable direction winds at 3 MPH (3 knots; 1.5 m/s)
Visibility: 5 miles ( 8 km)
Ceiling: at least 12,000 feet AGL
Clouds: scattered clouds at 1300 feet AGL
few clouds at 3300 feet AGL
Weather: -TSRA  (light rain associated with thunderstorm(s))

Forecast for: FEFF (BANGUI/M'POKO (M, CF)
Text: TAF FEFF 230500Z 2306/2412 22006KT 9999 SCT013
Forecast period: 0600 to 0900 UTC 23 July 2019
Forecast type: FROM: standard forecast or significant change
Winds: from the SW (220 degrees) at 7 MPH (6 knots; 3.1 m/s)
Visibility: 6 or more miles 10+ km)
Ceiling: at least 12,000 feet AGL
Clouds: scattered clouds at 1300 feet AGL
Weather: no significant weather forecast for this period
Text: BECMG 2309/2311 BKN023 FEW040CB
Forecast period: 0900 UTC 23 July 2019 to 1200 UTC 24 July 2019
Forecast type: BECOMING: Conditions expected to become as follows by 1100 UTC 23 July 2019
Winds: from the SW (220 degrees) at 7 MPH (6 knots; 3.1 m/s)
Visibility: 6 or more miles 10+ km)
Ceiling: 2300 feet AGL
Clouds: broken clouds at 2300 feet AGL
few clouds at 4000 feet AGL
Weather: no significant weather forecast for this period
Text: TEMPO 2313/2316 09015KT 4000 TSRA BKN010
Forecast period: 1300 to 1600 UTC 23 July 2019
Forecast type: TEMPORARY: The following changes expected for less than half the time period
Winds: from the E (90 degrees) at 17 MPH (15 knots; 7.7 m/s)
Visibility: 2.49 miles (4.01 km)
Ceiling: 1000 feet AGL
Clouds: broken clouds at 1000 feet AGL
Weather: TSRA  (rain associated with thunderstorm(s))